Airfield :
LOGIN :

Register | Disclaimer

   EN    FR    IT 

 










Legend :    VFR   Marginal VFR   IFR   Intensive IFR   Very Intensive IFR
Visi :
Ceiling :
>= 8 km
>= 3000ft
5 to 8 km
1000 to 3000 ft
1500m to 5 km
500 to 1000 ft
800 to 1500m
200 to 500 ft
< 800m
< 200 ft
Symbols :   Thunderstorms  Fog  Heavy snow  Heavy precipitations  Wind > 20 kt
SIGMETs :     Misc.  Thunderstorms  Icing  Turbulence  Mountain Waves  Volcanic Ashes






- Airport Elevation : 69 ft
- AIRPORT CLOSED.


EGXS - RAF Swinderby

CURRENT METAR :
  • 250020Z AUTO 20004KT 9999 BKN040/// 17/14 Q1013

EXPIRED METARs :
  • 242350Z AUTO 21007KT 9999 SCT026/// BKN036/// 17/14 Q1013
  • 242320Z AUTO 20009KT 9999 // OVC039/// 17/14 Q1013
  • 242250Z AUTO 21012KT 9999 // OVC031/// 17/14 Q1014
  • 242220Z AUTO 22009KT 9999 -RA FEW015/// OVC042/// 17/15 Q1014
  • 242150Z AUTO 19005KT 9999 OVC045/// 18/15 Q1014
  • 242120Z AUTO 18004KT 9999 OVC045/// 18/15 Q1014
  • 242050Z AUTO 20005KT 9999 OVC050/// 18/15 Q1014
  • 242020Z AUTO 20005KT 9999 BKN053/// 18/14 Q1014
  • 241950Z AUTO 22008KT 9999 // OVC062/// 18/14 Q1015

TAF N/A



MET'MAP, your aeronautical weather chart ! - Copyright ORBIFLY December 2007 - Disclaimer

ORBIFLY MET'MAP TEAM :

Programming & Development : Alexandra Zaïnal
Original concept : Baudouin d'Aumeries
Technical & hardware support : Manuel Goepfert
Assistance : Marc-Olivier Méhu




SOURCES & CREDITS :

   NOAA